• Join FlightAware (Why Join?)
  • Login
  • US Flag 
07:04AM EDT


 

Airport Tracker/Info


-or-


 

Live Flight TrackerFlight Track Log ✈ N792XJ ✈ 30-Apr-2013 ✈ KAUS - KTEB

Flight Track Log - Related Links

Times and Time Zones

All times are in EDT time to prevent confusion due to time zone crossing. See the N792XJ flight status page for this flight to view local times or setup timezone preferences in your user account.

Time Position Orientation Groundspeed Altitude Reporting Facility
EDT Latitude Longitude Course Direction KTS MPH feet Rate Location/Type
10:55PM 30.1497 -97.7536 327° Northwest 264 304 6,500  Level Houston Center
10:56PM 30.2119 -97.8039 325° Northwest 278 320 9,300 2,400 Climbing Houston Center
10:57PM 30.2903 -97.8289 345° North 290 334 11,400 2,280 Climbing Houston Center
10:58PM 30.3753 -97.8572 344° North 310 357 14,000 2,400 Climbing Houston Center
10:59PM 30.4614 -97.8881 343° North 317 365 16,300 2,040 Climbing Houston Center
11:00PM 30.8453 -97.8821 327° Northwest  Level FlightAware Approximate
11:00PM 30.5542 -97.9208 343° North 337 388 18,200  Level Houston Center
11:01PM 30.9565 -97.9673 327° Northwest  Level FlightAware Approximate
11:01PM 30.6525 -97.9561 343° North 358 412 20,200  Level Houston Center
11:02PM 30.7556 -97.9747 351° North 377 434 22,200 1,920 Climbing Houston Center
11:03PM 30.8442 -97.9044 34° Northeast 393 452 24,200 1,800 Climbing Houston Center
11:04PM 30.9181 -97.8022 50° Northeast 403 464 25,900 1,680 Climbing Houston Center
11:05PM 30.9953 -97.6964 50° Northeast 418 481 27,700 1,620 Climbing Houston Center
11:07PM 31.0758 -97.5881 49° Northeast 430 495 29,300 1,500 Climbing Houston Center
11:08PM 31.1578 -97.4739 50° Northeast 444 511 30,800 1,560 Climbing Houston Center
11:09PM 31.2431 -97.3581 49° Northeast 455 524 32,500 1,500 Climbing Houston Center
11:10PM 31.3283 -97.2403 50° Northeast 464 534 33,900 1,200 Climbing Houston Center
11:11PM 31.4142 -97.1194 50° Northeast 472 543 35,000 1,260 Climbing Houston Center
11:12PM 31.5039 -96.9956 50° Northeast 486 559 36,500 1,440 Climbing Houston Center
11:13PM 31.5925 -96.8711 50° Northeast 491 565 38,000 1,440 Climbing Houston Center
11:14PM 31.6814 -96.7469 50° Northeast 475 547 39,500 1,320 Climbing Fort Worth Center
11:15PM 31.7642 -96.6314 50° Northeast 474 545 40,700 900 Climbing Fort Worth Center
11:16PM 31.8489 -96.5083 51° Northeast 479 551 41,300 540 Climbing Fort Worth Center
11:17PM 31.9275 -96.4000 49° Northeast 479 551 41,800 420 Climbing Fort Worth Center
11:18PM 32.0142 -96.2789 50° Northeast 484 557 42,200 480 Climbing Fort Worth Center
11:19PM 32.1006 -96.1481 52° Northeast 490 564 42,800 600 Climbing Fort Worth Center
11:20PM 32.1892 -96.0264 49° Northeast 490 564 43,400 540 Climbing Fort Worth Center
11:21PM 32.2836 -95.8897 51° Northeast 481 554 43,900 480 Climbing Fort Worth Center
11:22PM 32.3697 -95.7653 51° Northeast 481 554 44,400 360 Climbing Fort Worth Center
11:24PM 32.5289 -95.5111 53° Northeast 476 548 45,000 180 Climbing Fort Worth Center
11:25PM 32.5914 -95.3644 63° Northeast 481 554 45,000  Level Fort Worth Center
11:26PM 32.6514 -95.2175 64° Northeast 486 559 45,000  Level Fort Worth Center
11:27PM 32.7133 -95.0678 64° Northeast 491 565 45,000  Level Fort Worth Center
11:28PM 32.7753 -94.9156 64° Northeast 497 572 45,000  Level Fort Worth Center
11:29PM 32.8369 -94.7656 64° Northeast 497 572 45,000  Level Fort Worth Center
11:30PM 32.9003 -94.6103 64° Northeast 503 579 45,000  Level Fort Worth Center
11:31PM 32.9594 -94.4572 65° Northeast 508 585 45,000  Level Fort Worth Center
11:32PM 33.0225 -94.3042 64° Northeast 508 585 45,000  Level Fort Worth Center
11:33PM 33.0853 -94.1456 65° Northeast 508 585 45,000  Level Fort Worth Center
11:34PM 33.1417 -93.9897 67° East 513 590 45,000  Level Fort Worth Center
11:35PM 33.2019 -93.8286 66° East 520 598 45,000  Level Fort Worth Center
11:36PM 33.2683 -93.6694 63° Northeast 525 604 45,000  Level Fort Worth Center
11:37PM 33.3322 -93.5125 64° Northeast 525 604 45,000  Level Fort Worth Center
11:38PM 33.3942 -93.3581 64° Northeast 519 597 45,000  Level Fort Worth Center
11:40PM 33.5378 -92.9889 65° Northeast 504 580 45,000  Level Memphis Center
11:41PM 33.5972 -92.8311 66° East 517 595 45,000  Level Memphis Center
11:42PM 33.6608 -92.6683 65° Northeast 517 595 45,000  Level Memphis Center
11:43PM 33.7222 -92.5100 65° Northeast 517 595 45,000  Level Memphis Center
11:44PM 33.7833 -92.3442 66° East 522 601 45,000  Level Memphis Center
11:45PM 33.8442 -92.1856 65° Northeast 522 601 45,000  Level Memphis Center
11:46PM 33.9050 -92.0214 66° East 522 601 45,000  Level Memphis Center
11:47PM 33.9656 -91.8575 66° East 522 601 45,000  Level Memphis Center
11:48PM 34.0281 -91.6806 67° East 517 595 45,000  Level Memphis Center
11:49PM 34.0839 -91.5133 68° East 517 595 45,000  Level Memphis Center
11:51PM 34.1488 -91.2941 70° East  Level FlightAware Approximate
11:53PM 34.3242 -90.8575 66° East 528 608 45,000  Level Memphis Center
11:55PM 34.4439 -90.5283 66° East 528 608 45,000  Level Memphis Center
11:56PM 34.5025 -90.3647 66° East 533 613 45,000  Level Memphis Center
11:57PM 34.5586 -90.1958 68° East 533 613 45,000  Level Memphis Center
11:58PM 34.5082 -90.2542 66° East  Level FlightAware Approximate
11:58PM 34.6106 -90.0492 67° East 533 613 45,000  Level Memphis Center
11:59PM 34.5624 -90.1068 66° East  Level FlightAware Approximate
11:59PM 34.6664 -89.8825 68° East 538 619 45,000  Level Memphis Center
12:00AM 34.7261 -89.7053 68° East 538 619 45,000  Level Memphis Center
12:01AM 34.7917 -89.5150 67° East 553 636 45,000  Level Memphis Center
12:02AM 34.8508 -89.3525 66° East 548 631 45,000  Level Memphis Center
12:03AM 34.9078 -89.1822 68° East 532 612 45,000  Level Memphis Center
12:04AM 34.9606 -89.0319 67° East 537 618 45,000  Level Memphis Center
12:05AM 35.0150 -88.8636 68° East 537 618 45,000  Level Memphis Center
12:06AM 35.0733 -88.7003 66° East 537 618 45,000  Level Memphis Center
12:07AM 35.1294 -88.5292 68° East 537 618 45,000  Level Memphis Center
12:08AM 35.1853 -88.3678 67° East 524 603 45,000  Level Memphis Center
12:09AM 35.2408 -88.2011 68° East 524 603 45,000  Level Memphis Center
12:10AM 35.2983 -88.0317 67° East 524 603 45,000  Level Memphis Center
12:11AM 35.3533 -87.8597 69° East 529 609 45,000  Level Memphis Center
12:12AM 35.4103 -87.6797 69° East 524 603 45,000  Level Memphis Center
12:13AM 35.4647 -87.5072 69° East 524 603 45,000  Level Memphis Center
12:14AM 35.5172 -87.3394 69° East 524 603 45,000  Level Memphis Center
12:15AM 35.5733 -87.1689 68° East 529 609 45,000  Level Memphis Center
12:16AM 35.6253 -87.0011 69° East 536 617 45,000  Level Memphis Center
12:17AM 35.6789 -86.8300 69° East 531 611 45,000  Level Memphis Center
12:18AM 35.7303 -86.6592 70° East 536 617 45,000  Level Memphis Center
12:19AM 35.7856 -86.4903 68° East 536 617 45,000  Level Memphis Center
12:20AM 35.8306 -86.3372 70° East 531 611 45,000  Level Memphis Center
12:22AM 35.9181 -86.0600 69° East 536 617 45,000  Level Indianapolis Center
12:23AM 35.9686 -85.8883 70° East 533 613 45,000  Level Indianapolis Center
12:24AM 36.0144 -85.7447 68° East 528 608 45,000  Level Indianapolis Center
12:25AM 36.0758 -85.5381 70° East 529 609 45,000  Level Indianapolis Center
12:27AM 36.1440 -85.2412 69° East  Level FlightAware Approximate
12:30AM 36.3314 -84.6719 71° East 533 613 45,000  Level Indianapolis Center
12:31AM 36.3819 -84.4992 70° East 530 610 45,000  Level Indianapolis Center
12:32AM 36.4317 -84.3253 70° East 531 611 45,000  Level Indianapolis Center
12:33AM 36.4814 -84.1522 70° East 530 610 45,000  Level Indianapolis Center
12:34AM 36.4666 -84.1564 70° East  Level FlightAware Approximate
12:34AM 36.5292 -84.0044 68° East 528 608 45,000  Level Indianapolis Center
12:35AM 36.5106 -84.0002 71° East  Level FlightAware Approximate
12:35AM 36.5858 -83.8372 67° East 525 604 45,000  Level Indianapolis Center
12:36AM 36.6461 -83.6725 65° Northeast 523 602 45,000  Level Indianapolis Center
12:37AM 36.7006 -83.5050 68° East 521 600 45,000  Level Indianapolis Center
12:38AM 36.7647 -83.3100 68° East 519 597 45,000  Level Indianapolis Center
12:39AM 36.8197 -83.1425 68° East 519 597 45,000  Level Indianapolis Center
12:40AM 36.8731 -82.9811 68° East 522 601 45,000  Level Indianapolis Center
12:41AM 36.9322 -82.8186 65° Northeast 514 592 45,000  Level Indianapolis Center
12:42AM 36.9811 -82.6492 70° East 527 606 45,000  Level Indianapolis Center
12:43AM 37.0344 -82.4833 68° East 517 595 45,000  Level Indianapolis Center
12:44AM 37.0897 -82.3150 68° East 521 600 45,000  Level Indianapolis Center
12:45AM 37.1442 -82.1472 68° East 520 598 45,000  Level Indianapolis Center
12:46AM 37.1978 -81.9789 68° East 519 597 45,000  Level Indianapolis Center
12:47AM 37.2517 -81.8086 68° East 524 603 45,000  Level Indianapolis Center
12:48AM 37.3033 -81.6392 69° East 520 598 45,000  Level Indianapolis Center
12:49AM 37.3617 -81.4550 68° East 519 597 45,000  Level Indianapolis Center
12:50AM 37.4131 -81.2889 69° East 522 601 45,000  Level Indianapolis Center
12:51AM 37.4625 -81.1253 69° East 517 595 45,000  Level Indianapolis Center
12:52AM 37.5117 -80.9625 69° East 512 589 45,000  Level Indianapolis Center
12:53AM 37.5625 -80.7997 68° East 512 589 45,000  Level Indianapolis Center
12:54AM 37.6206 -80.6022 70° East 513 590 45,000  Level Indianapolis Center
12:56AM 37.7192 -80.2744 69° East 512 589 45,000  Level Indianapolis Center
12:57AM 37.7683 -80.1100 69° East 512 589 45,000  Level Indianapolis Center
12:58AM 37.8169 -79.9464 69° East 509 586 45,000  Level Indianapolis Center
12:59AM 37.8658 -79.7831 69° East 507 583 45,000  Level Indianapolis Center
01:00AM 37.9125 -79.6181 70° East 506 582 45,000  Level Indianapolis Center
01:01AM 37.9603 -79.4539 70° East 505 581 45,000  Level Indianapolis Center
01:02AM 38.0078 -79.2886 70° East 508 585 45,000  Level Indianapolis Center
01:03AM 38.0772 -79.0606 69° East 504 580 45,000  Level Washington Center
01:04AM 38.1236 -78.8939 70° East 499 574 45,000  Level Washington Center
01:05AM 38.1761 -78.7244 68° East 499 574 45,000  Level Washington Center
01:06AM 38.2222 -78.5572 71° East 499 574 45,000  Level Washington Center
01:07AM 38.2658 -78.3844 72° East 499 574 45,000  Level Washington Center
01:08AM 38.3114 -78.2142 71° East 499 574 45,000  Level Washington Center
01:09AM 38.3567 -78.0436 71° East 499 574 45,000  Level Washington Center
01:10AM 38.4039 -77.8728 71° East 504 580 45,000  Level Washington Center
01:11AM 38.4817 -77.7214 57° Northeast 496 571 45,000  Level Washington Center
01:12AM 38.5717 -77.5781 51° Northeast 501 577 45,000  Level Washington Center
01:13AM 38.6617 -77.4342 51° Northeast 507 583 45,000 -60 Level Washington Center
01:14AM 38.7511 -77.2953 50° Northeast 513 590 44,900 -720 Descending Washington Center
01:15AM 38.8386 -77.1508 52° Northeast 513 590 43,600 -1,860 Descending Washington Center
01:16AM 38.9278 -77.0139 50° Northeast 508 585 41,100 -2,700 Descending Washington Center
01:17AM 39.0108 -76.8767 52° Northeast 503 579 38,400 -2,880 Descending Washington Center
01:18AM 39.0956 -76.7417 51° Northeast 493 567 35,600 -2,700 Descending Washington Center
01:19AM 39.1717 -76.6169 52° Northeast 473 544 33,000 -2,520 Descending Washington Center
01:20AM 39.2519 -76.4894 51° Northeast 460 529 30,500 -2,640 Descending Washington Center
01:21AM 39.3342 -76.3564 51° Northeast 460 529 27,800 -2,760 Descending Washington Center
01:23AM 39.5000 -76.0833 52° Northeast 451 519 22,100 -2,640 Descending Philadelphia TRACON
01:24AM 39.5833 -75.9500 51° Northeast 438 504 19,700 -2,400 Descending Philadelphia TRACON
01:25AM 39.6500 -75.8333 53° Northeast 425 489 17,400 -2,400 Descending Philadelphia TRACON
01:26AM 39.7167 -75.7167 53° Northeast 411 473 15,000 -2,220 Descending Philadelphia TRACON
01:27AM 39.8000 -75.6000 47° Northeast 392 451 13,000 -1,020 Descending Philadelphia TRACON
01:28AM 39.8833 -75.5167 37° Northeast 404 465 13,000  Level Philadelphia TRACON
01:29AM 39.9667 -75.4333 37° Northeast 402 463 13,000  Level Philadelphia TRACON
01:30AM 40.0667 -75.3500 33° Northeast 379 436 13,000  Level Philadelphia TRACON
01:31AM 40.1333 -75.2833 37° Northeast 328 377 13,000 -780 Level Philadelphia TRACON
01:33AM 40.2667 -75.1667 34° Northeast 296 341 10,800 -1,260 Descending New York TRACON
01:34AM 40.3167 -75.0833 52° Northeast 281 323 9,500 -960 Descending New York TRACON
01:36AM 40.4515 -74.9199 52° Northeast  Level FlightAware Approximate
01:37AM 40.4333 -74.8167 52° Northeast 272 313 7,000  Level New York TRACON
01:38AM 40.4833 -74.7333 52° Northeast 268 308 6,500 -780 Descending New York TRACON
01:39AM 40.5167 -74.6667 57° Northeast 265 305 5,500 -1,080 Descending New York TRACON
01:40AM 40.5500 -74.5833 62° Northeast 253 291 4,400 -1,200 Descending New York TRACON
01:41AM 40.6000 -74.5000 52° Northeast 251 289 3,200 -900 Descending New York TRACON
01:42AM 40.6333 -74.4333 57° Northeast 250 288 2,700 -600 Descending New York TRACON
01:43AM 40.6667 -74.3500 62° Northeast 251 289 2,000 -360 Descending New York TRACON
01:44AM 40.7167 -74.2833 45° Northeast 247 284 2,000 -300 Level New York TRACON
01:45AM 40.7500 -74.2167 57° Northeast 246 283 1,500 -300 Descending New York TRACON
01:46AM 40.7833 -74.1667 49° Northeast 202 232 1,500 -240 Level New York TRACON
01:47AM 40.8167 -74.1167 49° Northeast 153 176 1,100 -660 Descending New York TRACON
01:48AM 40.8333 -74.0833 57° Northeast 128 147 200 -900 Descending New York TRACON
01:50AM 40.8500 -74.0500 57° Northeast  Level FlightAware Approximate